sensor_id;sensor_type;location;lat;lon;timestamp;pressure;altitude;pressure_sealevel;temperature;humidity
10093;BME280;5085;48.092;11.484;2022-11-20T00:01:07;94606.78;;;4.90;100.00
10093;BME280;5085;48.092;11.484;2022-11-20T00:03:34;94608.69;;;4.94;100.00
10093;BME280;5085;48.092;11.484;2022-11-20T00:06:05;94612.47;;;4.98;100.00
10093;BME280;5085;48.092;11.484;2022-11-20T00:08:32;94608.75;;;4.99;100.00
10093;BME280;5085;48.092;11.484;2022-11-20T00:11:10;94612.25;;;5.05;100.00
10093;BME280;5085;48.092;11.484;2022-11-20T00:13:36;94617.59;;;5.05;100.00
10093;BME280;5085;48.092;11.484;2022-11-20T00:16:04;94620.81;;;5.07;100.00
10093;BME280;5085;48.092;11.484;2022-11-20T00:18:33;94620.06;;;5.12;100.00
10093;BME280;5085;48.092;11.484;2022-11-20T00:21:04;94616.09;;;5.14;100.00
10093;BME280;5085;48.092;11.484;2022-11-20T00:23:31;94615.56;;;5.17;100.00
10093;BME280;5085;48.092;11.484;2022-11-20T00:26:01;94610.78;;;5.19;100.00
10093;BME280;5085;48.092;11.484;2022-11-20T00:28:27;94624.69;;;5.21;100.00
10093;BME280;5085;48.092;11.484;2022-11-20T00:31:12;94620.16;;;5.22;100.00
10093;BME280;5085;48.092;11.484;2022-11-20T00:33:39;94624.97;;;5.25;100.00
10093;BME280;5085;48.092;11.484;2022-11-20T00:36:11;94628.47;;;5.25;100.00
10093;BME280;5085;48.092;11.484;2022-11-20T00:38:37;94621.00;;;5.28;100.00
10093;BME280;5085;48.092;11.484;2022-11-20T00:41:09;94623.41;;;5.29;100.00
10093;BME280;5085;48.092;11.484;2022-11-20T00:43:36;94623.41;;;5.29;100.00
10093;BME280;5085;48.092;11.484;2022-11-20T00:46:11;94624.00;;;5.31;100.00
10093;BME280;5085;48.092;11.484;2022-11-20T00:48:38;94629.31;;;5.31;100.00
10093;BME280;5085;48.092;11.484;2022-11-20T00:51:04;94630.94;;;5.32;100.00
10093;BME280;5085;48.092;11.484;2022-11-20T00:53:30;94642.66;;;5.31;100.00
10093;BME280;5085;48.092;11.484;2022-11-20T00:55:59;94638.38;;;5.30;100.00
10093;BME280;5085;48.092;11.484;2022-11-20T00:58:29;94632.22;;;5.30;100.00
10093;BME280;5085;48.092;11.484;2022-11-20T01:01:04;94642.66;;;5.31;100.00
10093;BME280;5085;48.092;11.484;2022-11-20T01:03:32;94648.00;;;5.31;100.00
10093;BME280;5085;48.092;11.484;2022-11-20T01:06:12;94647.19;;;5.31;100.00
10093;BME280;5085;48.092;11.484;2022-11-20T01:08:38;94650.69;;;5.31;100.00
10093;BME280;5085;48.092;11.484;2022-11-20T01:11:10;94653.34;;;5.31;100.00
10093;BME280;5085;48.092;11.484;2022-11-20T01:13:37;94644.78;;;5.29;100.00
10093;BME280;5085;48.092;11.484;2022-11-20T01:16:16;94650.13;;;5.29;100.00
10093;BME280;5085;48.092;11.484;2022-11-20T01:18:45;94647.44;;;5.29;100.00
10093;BME280;5085;48.092;11.484;2022-11-20T01:21:13;94643.97;;;5.29;100.00
10093;BME280;5085;48.092;11.484;2022-11-20T01:23:41;94645.56;;;5.30;100.00
10093;BME280;5085;48.092;11.484;2022-11-20T01:26:10;94649.84;;;5.31;100.00
10093;BME280;5085;48.092;11.484;2022-11-20T01:28:36;94648.50;;;5.28;100.00
10093;BME280;5085;48.092;11.484;2022-11-20T01:31:20;94649.31;;;5.29;100.00
10093;BME280;5085;48.092;11.484;2022-11-20T01:33:47;94651.19;;;5.28;100.00
10093;BME280;5085;48.092;11.484;2022-11-20T01:36:14;94653.84;;;5.28;100.00
10093;BME280;5085;48.092;11.484;2022-11-20T01:38:41;94653.03;;;5.28;100.00
10093;BME280;5085;48.092;11.484;2022-11-20T01:41:07;94661.28;;;5.26;100.00
10093;BME280;5085;48.092;11.484;2022-11-20T01:43:34;94648.75;;;5.26;100.00
10093;BME280;5085;48.092;11.484;2022-11-20T01:48:46;94659.19;;;5.28;100.00
10093;BME280;5085;48.092;11.484;2022-11-20T01:51:24;94661.06;;;5.28;100.00
10093;BME280;5085;48.092;11.484;2022-11-20T01:53:53;94660.00;;;5.29;100.00
10093;BME280;5085;48.092;11.484;2022-11-20T01:56:21;94661.59;;;5.30;100.00
10093;BME280;5085;48.092;11.484;2022-11-20T01:58:52;94664.81;;;5.32;100.00
10093;BME280;5085;48.092;11.484;2022-11-20T02:01:20;94666.69;;;5.31;100.00
10093;BME280;5085;48.092;11.484;2022-11-20T02:03:47;94657.63;;;5.32;100.00
10093;BME280;5085;48.092;11.484;2022-11-20T02:06:21;94659.22;;;5.33;100.00
10093;BME280;5085;48.092;11.484;2022-11-20T02:08:49;94659.72;;;5.30;100.00
10093;BME280;5085;48.092;11.484;2022-11-20T02:11:15;94660.53;;;5.31;100.00
10093;BME280;5085;48.092;11.484;2022-11-20T02:13:41;94660.00;;;5.29;100.00
10093;BME280;5085;48.092;11.484;2022-11-20T02:18:48;94667.69;;;5.25;100.00
10093;BME280;5085;48.092;11.484;2022-11-20T02:21:32;94665.28;;;5.23;100.00
10093;BME280;5085;48.092;11.484;2022-11-20T02:24:02;94664.22;;;5.24;100.00
10093;BME280;5085;48.092;11.484;2022-11-20T02:26:31;94661.81;;;5.23;100.00
10093;BME280;5085;48.092;11.484;2022-11-20T02:28:59;94667.16;;;5.23;100.00
10093;BME280;5085;48.092;11.484;2022-11-20T02:31:28;94663.91;;;5.21;100.00
10093;BME280;5085;48.092;11.484;2022-11-20T02:33:56;94664.72;;;5.21;100.00
10093;BME280;5085;48.092;11.484;2022-11-20T02:36:24;94663.09;;;5.20;100.00
10093;BME280;5085;48.092;11.484;2022-11-20T02:38:52;94665.78;;;5.20;100.00
10093;BME280;5085;48.092;11.484;2022-11-20T02:41:18;94660.19;;;5.22;100.00
10093;BME280;5085;48.092;11.484;2022-11-20T02:43:44;94661.00;;;5.22;100.00
10093;BME280;5085;48.092;11.484;2022-11-20T02:46:10;94665.03;;;5.25;100.00
10093;BME280;5085;48.092;11.484;2022-11-20T02:48:36;94653.28;;;5.26;100.00
10093;BME280;5085;48.092;11.484;2022-11-20T02:51:02;94657.59;;;5.27;100.00
10093;BME280;5085;48.092;11.484;2022-11-20T02:53:28;94663.47;;;5.29;100.00
10093;BME280;5085;48.092;11.484;2022-11-20T02:55:54;94659.19;;;5.28;100.00
10093;BME280;5085;48.092;11.484;2022-11-20T02:58:21;94654.66;;;5.29;100.00
10093;BME280;5085;48.092;11.484;2022-11-20T03:00:47;94665.63;;;5.32;100.00
10093;BME280;5085;48.092;11.484;2022-11-20T03:03:13;94661.91;;;5.33;100.00
10093;BME280;5085;48.092;11.484;2022-11-20T03:05:39;94656.84;;;5.37;100.00
10093;BME280;5085;48.092;11.484;2022-11-20T03:08:05;94652.31;;;5.37;100.00
10093;BME280;5085;48.092;11.484;2022-11-20T03:10:31;94660.34;;;5.37;100.00
10093;BME280;5085;48.092;11.484;2022-11-20T03:12:56;94664.59;;;5.38;100.00
10093;BME280;5085;48.092;11.484;2022-11-20T03:15:23;94654.72;;;5.39;100.00
10093;BME280;5085;48.092;11.484;2022-11-20T03:17:53;94649.16;;;5.40;100.00
10093;BME280;5085;48.092;11.484;2022-11-20T03:20:19;94653.69;;;5.40;100.00
10093;BME280;5085;48.092;11.484;2022-11-20T03:22:45;94648.34;;;5.40;100.00
10093;BME280;5085;48.092;11.484;2022-11-20T03:25:11;94651.03;;;5.40;100.00
10093;BME280;5085;48.092;11.484;2022-11-20T03:27:37;94652.88;;;5.39;100.00
10093;BME280;5085;48.092;11.484;2022-11-20T03:30:04;94656.34;;;5.40;100.00
10093;BME280;5085;48.092;11.484;2022-11-20T03:32:31;94660.88;;;5.39;100.00
10093;BME280;5085;48.092;11.484;2022-11-20T03:34:57;94653.13;;;5.38;100.00
10093;BME280;5085;48.092;11.484;2022-11-20T03:37:23;94663.00;;;5.37;100.00
10093;BME280;5085;48.092;11.484;2022-11-20T03:39:49;94655.00;;;5.37;100.00
10093;BME280;5085;48.092;11.484;2022-11-20T03:42:15;94646.97;;;5.37;100.00
10093;BME280;5085;48.092;11.484;2022-11-20T03:44:59;94653.13;;;5.38;100.00
10093;BME280;5085;48.092;11.484;2022-11-20T03:47:25;94662.19;;;5.37;100.00
10093;BME280;5085;48.092;11.484;2022-11-20T03:49:53;94656.84;;;5.37;100.00
10093;BME280;5085;48.092;11.484;2022-11-20T03:52:19;94656.84;;;5.37;100.00
10093;BME280;5085;48.092;11.484;2022-11-20T03:54:45;94657.13;;;5.35;100.00
10093;BME280;5085;48.092;11.484;2022-11-20T03:57:11;94658.16;;;5.34;100.00
10093;BME280;5085;48.092;11.484;2022-11-20T03:59:37;94660.81;;;5.34;100.00
10093;BME280;5085;48.092;11.484;2022-11-20T04:02:03;94663.75;;;5.33;100.00
10093;BME280;5085;48.092;11.484;2022-11-20T04:04:29;94662.41;;;5.30;100.00
10093;BME280;5085;48.092;11.484;2022-11-20T04:06:55;94657.31;;;5.29;100.00
10093;BME280;5085;48.092;11.484;2022-11-20T04:09:21;94663.47;;;5.29;100.00
10093;BME280;5085;48.092;11.484;2022-11-20T04:11:47;94659.72;;;5.30;100.00
10093;BME280;5085;48.092;11.484;2022-11-20T04:14:14;94658.13;;;5.29;100.00
10093;BME280;5085;48.092;11.484;2022-11-20T04:16:41;94662.91;;;5.27;100.00
10093;BME280;5085;48.092;11.484;2022-11-20T04:19:15;94658.63;;;5.26;100.00
10093;BME280;5085;48.092;11.484;2022-11-20T04:21:42;94659.41;;;5.26;100.00
10093;BME280;5085;48.092;11.484;2022-11-20T04:24:08;94660.47;;;5.25;100.00
10093;BME280;5085;48.092;11.484;2022-11-20T04:26:36;94654.03;;;5.21;100.00
10093;BME280;5085;48.092;11.484;2022-11-20T04:29:02;94652.16;;;5.22;100.00
10093;BME280;5085;48.092;11.484;2022-11-20T04:31:31;94657.78;;;5.20;100.00
10093;BME280;5085;48.092;11.484;2022-11-20T04:34:02;94656.47;;;5.23;100.00
10093;BME280;5085;48.092;11.484;2022-11-20T04:36:29;94664.47;;;5.23;100.00
10093;BME280;5085;48.092;11.484;2022-11-20T04:39:05;94660.19;;;5.22;100.00
10093;BME280;5085;48.092;11.484;2022-11-20T04:41:34;94660.19;;;5.22;100.00
10093;BME280;5085;48.092;11.484;2022-11-20T04:44:02;94653.25;;;5.21;100.00
10093;BME280;5085;48.092;11.484;2022-11-20T04:46:34;94662.84;;;5.22;100.00
10093;BME280;5085;48.092;11.484;2022-11-20T04:49:00;94661.00;;;5.22;100.00
10093;BME280;5085;48.092;11.484;2022-11-20T04:51:27;94671.41;;;5.24;100.00
10093;BME280;5085;48.092;11.484;2022-11-20T04:53:53;94662.03;;;5.21;100.00
10093;BME280;5085;48.092;11.484;2022-11-20T04:56:19;94668.19;;;5.22;100.00
10093;BME280;5085;48.092;11.484;2022-11-20T04:58:45;94663.91;;;5.21;100.00
10093;BME280;5085;48.092;11.484;2022-11-20T05:01:12;94670.84;;;5.22;100.00
10093;BME280;5085;48.092;11.484;2022-11-20T05:03:40;94670.06;;;5.21;100.00
10093;BME280;5085;48.092;11.484;2022-11-20T05:06:07;94661.25;;;5.21;100.00
10093;BME280;5085;48.092;11.484;2022-11-20T05:08:34;94658.03;;;5.19;100.00
10093;BME280;5085;48.092;11.484;2022-11-20T05:11:04;94656.97;;;5.20;100.00
10093;BME280;5085;48.092;11.484;2022-11-20T05:13:30;94655.59;;;5.17;100.00
10093;BME280;5085;48.092;11.484;2022-11-20T05:16:14;94667.06;;;5.18;100.00
10093;BME280;5085;48.092;11.484;2022-11-20T05:18:40;94667.06;;;5.18;100.00
10093;BME280;5085;48.092;11.484;2022-11-20T05:21:07;94667.91;;;5.18;100.00
10093;BME280;5085;48.092;11.484;2022-11-20T05:23:34;94675.91;;;5.18;100.00
10093;BME280;5085;48.092;11.484;2022-11-20T05:26:00;94667.66;;;5.20;100.00
10093;BME280;5085;48.092;11.484;2022-11-20T05:28:28;94663.09;;;5.20;100.00
10093;BME280;5085;48.092;11.484;2022-11-20T05:30:54;94668.19;;;5.22;100.00
10093;BME280;5085;48.092;11.484;2022-11-20T05:33:20;94666.59;;;5.21;100.00
10093;BME280;5085;48.092;11.484;2022-11-20T05:35:47;94676.47;;;5.20;100.00
10093;BME280;5085;48.092;11.484;2022-11-20T05:38:14;94666.03;;;5.19;100.00
10093;BME280;5085;48.092;11.484;2022-11-20T05:40:40;94669.75;;;5.18;100.00
10093;BME280;5085;48.092;11.484;2022-11-20T05:43:06;94668.13;;;5.17;100.00
10093;BME280;5085;48.092;11.484;2022-11-20T05:45:32;94670.81;;;5.17;100.00
10093;BME280;5085;48.092;11.484;2022-11-20T05:47:59;94672.94;;;5.15;100.00
10093;BME280;5085;48.092;11.484;2022-11-20T05:50:27;94680.16;;;5.14;100.00
10093;BME280;5085;48.092;11.484;2022-11-20T05:52:53;94669.69;;;5.13;100.00
10093;BME280;5085;48.092;11.484;2022-11-20T05:55:19;94678.78;;;5.12;100.00
10093;BME280;5085;48.092;11.484;2022-11-20T05:57:45;94669.16;;;5.11;100.00
10093;BME280;5085;48.092;11.484;2022-11-20T06:00:11;94674.50;;;5.11;100.00
10093;BME280;5085;48.092;11.484;2022-11-20T06:02:37;94678.19;;;5.10;100.00
10093;BME280;5085;48.092;11.484;2022-11-20T06:05:04;94675.53;;;5.10;100.00
10093;BME280;5085;48.092;11.484;2022-11-20T06:07:30;94672.06;;;5.09;100.00
10093;BME280;5085;48.092;11.484;2022-11-20T06:09:56;94678.72;;;5.07;100.00
10093;BME280;5085;48.092;11.484;2022-11-20T06:12:22;94673.34;;;5.01;100.00
10093;BME280;5085;48.092;11.484;2022-11-20T06:14:48;94675.94;;;4.96;100.00
10093;BME280;5085;48.092;11.484;2022-11-20T06:17:14;94682.81;;;4.92;100.00
10093;BME280;5085;48.092;11.484;2022-11-20T06:19:40;94670.50;;;4.86;100.00
10093;BME280;5085;48.092;11.484;2022-11-20T06:22:06;94674.97;;;4.81;100.00
10093;BME280;5085;48.092;11.484;2022-11-20T06:24:32;94670.41;;;4.76;100.00
10093;BME280;5085;48.092;11.484;2022-11-20T06:26:58;94674.03;;;4.70;100.00
10093;BME280;5085;48.092;11.484;2022-11-20T06:29:24;94667.28;;;4.62;100.00
10093;BME280;5085;48.092;11.484;2022-11-20T06:31:50;94667.22;;;4.57;100.00
10093;BME280;5085;48.092;11.484;2022-11-20T06:34:16;94678.63;;;4.53;100.00
10093;BME280;5085;48.092;11.484;2022-11-20T06:36:42;94686.09;;;4.50;100.00
10093;BME280;5085;48.092;11.484;2022-11-20T06:39:08;94683.44;;;4.50;100.00
10093;BME280;5085;48.092;11.484;2022-11-20T06:41:34;94686.09;;;4.50;100.00
10093;BME280;5085;48.092;11.484;2022-11-20T06:44:00;94686.31;;;4.49;100.00
10093;BME280;5085;48.092;11.484;2022-11-20T06:46:26;94690.59;;;4.50;100.00
10093;BME280;5085;48.092;11.484;2022-11-20T06:48:52;94695.44;;;4.53;100.00
10093;BME280;5085;48.092;11.484;2022-11-20T06:51:18;94697.88;;;4.55;100.00
10093;BME280;5085;48.092;11.484;2022-11-20T06:53:44;94700.03;;;4.58;100.00
10093;BME280;5085;48.092;11.484;2022-11-20T06:56:11;94697.41;;;4.63;100.00
10093;BME280;5085;48.092;11.484;2022-11-20T06:58:37;94709.19;;;4.67;100.00
10093;BME280;5085;48.092;11.484;2022-11-20T07:01:11;94713.56;;;4.73;100.00
10093;BME280;5085;48.092;11.484;2022-11-20T07:03:38;94704.56;;;4.79;100.00
10093;BME280;5085;48.092;11.484;2022-11-20T07:06:05;94708.91;;;4.85;100.00
10093;BME280;5085;48.092;11.484;2022-11-20T07:08:32;94713.22;;;4.91;100.00
10093;BME280;5085;48.092;11.484;2022-11-20T07:11:00;94715.72;;;4.98;100.00
10093;BME280;5085;48.092;11.484;2022-11-20T07:13:29;94714.97;;;5.03;100.00
10093;BME280;5085;48.092;11.484;2022-11-20T07:15:59;94717.69;;;5.08;100.00
10093;BME280;5085;48.092;11.484;2022-11-20T07:18:26;94719.34;;;5.14;100.00
10093;BME280;5085;48.092;11.484;2022-11-20T07:20:52;94719.91;;;5.16;100.00
10093;BME280;5085;48.092;11.484;2022-11-20T07:23:18;94724.19;;;5.17;100.00
10093;BME280;5085;48.092;11.484;2022-11-20T07:25:44;94720.22;;;5.19;100.00
10093;BME280;5085;48.092;11.484;2022-11-20T07:28:10;94727.75;;;5.22;100.00
10093;BME280;5085;48.092;11.484;2022-11-20T07:30:36;94726.41;;;5.25;100.00
10093;BME280;5085;48.092;11.484;2022-11-20T07:33:03;94727.78;;;5.28;100.00
10093;BME280;5085;48.092;11.484;2022-11-20T07:35:29;94720.56;;;5.28;100.00
10093;BME280;5085;48.092;11.484;2022-11-20T07:37:55;94724.34;;;5.32;100.00
10093;BME280;5085;48.092;11.484;2022-11-20T07:40:21;94723.28;;;5.33;100.00
10093;BME280;5085;48.092;11.484;2022-11-20T07:42:51;94713.41;;;5.34;100.00
10093;BME280;5085;48.092;11.484;2022-11-20T07:45:18;94724.13;;;5.39;100.00
10093;BME280;5085;48.092;11.484;2022-11-20T07:47:45;94721.78;;;5.42;100.00
10093;BME280;5085;48.092;11.484;2022-11-20T07:50:11;94721.28;;;5.45;100.00
10093;BME280;5085;48.092;11.484;2022-11-20T07:52:38;94723.94;;;5.45;100.00
10093;BME280;5085;48.092;11.484;2022-11-20T07:55:04;94722.38;;;5.49;100.00
10093;BME280;5085;48.092;11.484;2022-11-20T07:57:30;94717.34;;;5.53;100.00
10093;BME280;5085;48.092;11.484;2022-11-20T07:59:57;94721.38;;;5.56;100.00
10093;BME280;5085;48.092;11.484;2022-11-20T08:02:23;94724.66;;;5.63;100.00
10093;BME280;5085;48.092;11.484;2022-11-20T08:04:49;94732.16;;;5.66;100.00
10093;BME280;5085;48.092;11.484;2022-11-20T08:07:15;94729.53;;;5.71;100.00
10093;BME280;5085;48.092;11.484;2022-11-20T08:09:41;94722.63;;;5.75;100.00
10093;BME280;5085;48.092;11.484;2022-11-20T08:12:07;94729.06;;;5.79;100.00
10093;BME280;5085;48.092;11.484;2022-11-20T08:14:52;94737.91;;;5.85;100.00
10093;BME280;5085;48.092;11.484;2022-11-20T08:17:18;94726.47;;;5.89;100.00
10093;BME280;5085;48.092;11.484;2022-11-20T08:19:44;94730.84;;;5.95;100.00
10093;BME280;5085;48.092;11.484;2022-11-20T08:22:10;94736.50;;;6.04;100.00
10093;BME280;5085;48.092;11.484;2022-11-20T08:24:36;94731.19;;;6.09;100.00
10093;BME280;5085;48.092;11.484;2022-11-20T08:27:02;94740.06;;;6.15;100.00
10093;BME280;5085;48.092;11.484;2022-11-20T08:29:28;94731.25;;;6.19;100.00
10093;BME280;5085;48.092;11.484;2022-11-20T08:31:54;94744.41;;;6.26;100.00
10093;BME280;5085;48.092;11.484;2022-11-20T08:34:20;94741.78;;;6.31;100.00
10093;BME280;5085;48.092;11.484;2022-11-20T08:36:46;94738.88;;;6.38;100.00
10093;BME280;5085;48.092;11.484;2022-11-20T08:39:12;94742.66;;;6.42;100.00
10093;BME280;5085;48.092;11.484;2022-11-20T08:41:38;94737.06;;;6.48;100.00
10093;BME280;5085;48.092;11.484;2022-11-20T08:44:07;94744.06;;;6.55;100.00
10093;BME280;5085;48.092;11.484;2022-11-20T08:46:36;94731.50;;;6.55;100.00
10093;BME280;5085;48.092;11.484;2022-11-20T08:49:04;94732.06;;;6.62;100.00
10093;BME280;5085;48.092;11.484;2022-11-20T08:51:30;94730.75;;;6.70;100.00
10093;BME280;5085;48.092;11.484;2022-11-20T08:53:56;94732.16;;;6.78;100.00
10093;BME280;5085;48.092;11.484;2022-11-20T08:56:22;94730.84;;;6.85;100.00
10093;BME280;5085;48.092;11.484;2022-11-20T08:58:49;94724.22;;;6.98;100.00
10093;BME280;5085;48.092;11.484;2022-11-20T09:01:16;94729.34;;;7.10;100.00
10093;BME280;5085;48.092;11.484;2022-11-20T09:03:42;94725.88;;;7.19;99.61
10093;BME280;5085;48.092;11.484;2022-11-20T09:06:08;94728.88;;;7.28;99.04
10093;BME280;5085;48.092;11.484;2022-11-20T09:08:34;94727.28;;;7.37;99.55
10093;BME280;5085;48.092;11.484;2022-11-20T09:11:02;94734.00;;;7.45;98.59
10093;BME280;5085;48.092;11.484;2022-11-20T09:13:29;94725.16;;;7.49;95.95
10093;BME280;5085;48.092;11.484;2022-11-20T09:15:58;94722.22;;;7.51;95.23
10093;BME280;5085;48.092;11.484;2022-11-20T09:18:26;94737.47;;;7.56;94.18
10093;BME280;5085;48.092;11.484;2022-11-20T09:20:56;94727.84;;;7.55;93.26
10093;BME280;5085;48.092;11.484;2022-11-20T09:23:22;94723.56;;;7.59;93.10
10093;BME280;5085;48.092;11.484;2022-11-20T09:25:48;94718.47;;;7.62;93.08
10093;BME280;5085;48.092;11.484;2022-11-20T09:28:14;94726.53;;;7.67;91.66
10093;BME280;5085;48.092;11.484;2022-11-20T09:30:40;94718.25;;;7.69;94.95
10093;BME280;5085;48.092;11.484;2022-11-20T09:33:06;94718.22;;;7.79;95.04
10093;BME280;5085;48.092;11.484;2022-11-20T09:35:33;94718.50;;;7.83;91.54
10093;BME280;5085;48.092;11.484;2022-11-20T09:38:04;94723.06;;;7.87;90.20
10093;BME280;5085;48.092;11.484;2022-11-20T09:40:30;94722.53;;;7.90;88.90
10093;BME280;5085;48.092;11.484;2022-11-20T09:43:18;94718.53;;;8.03;87.05
10093;BME280;5085;48.092;11.484;2022-11-20T09:46:07;94713.94;;;8.55;83.37
10093;BME280;5085;48.092;11.484;2022-11-20T09:49:10;94721.03;;;9.05;80.65
10093;BME280;5085;48.092;11.484;2022-11-20T09:51:57;94708.81;;;9.28;77.30
10093;BME280;5085;48.092;11.484;2022-11-20T09:54:30;94705.53;;;9.36;76.41
10093;BME280;5085;48.092;11.484;2022-11-20T09:57:05;94701.88;;;10.00;74.48
10093;BME280;5085;48.092;11.484;2022-11-20T09:59:43;94701.13;;;12.06;64.64
10093;BME280;5085;48.092;11.484;2022-11-20T10:04:59;94691.50;;;16.31;48.49
10093;BME280;5085;48.092;11.484;2022-11-20T10:07:43;94691.09;;;17.82;43.55
10093;BME280;5085;48.092;11.484;2022-11-20T10:10:15;94686.81;;;17.72;42.28
10093;BME280;5085;48.092;11.484;2022-11-20T10:12:55;94688.72;;;16.83;43.98
10093;BME280;5085;48.092;11.484;2022-11-20T10:30:14;94694.16;;;17.51;41.53
10093;BME280;5085;48.092;11.484;2022-11-20T10:32:42;94684.84;;;16.84;42.84
10093;BME280;5085;48.092;11.484;2022-11-20T10:35:20;94691.66;;;17.67;41.73
10093;BME280;5085;48.092;11.484;2022-11-20T10:37:52;94689.53;;;18.56;40.18
10093;BME280;5085;48.092;11.484;2022-11-20T10:40:33;94693.28;;;18.31;39.46
10093;BME280;5085;48.092;11.484;2022-11-20T10:43:28;94685.81;;;16.71;41.60
10093;BME280;5085;48.092;11.484;2022-11-20T10:46:01;94689.66;;;15.40;44.76
10093;BME280;5085;48.092;11.484;2022-11-20T10:48:31;94696.47;;;14.49;46.65
10093;BME280;5085;48.092;11.484;2022-11-20T10:56:38;94699.44;;;12.42;53.10
10093;BME280;5085;48.092;11.484;2022-11-20T10:59:18;94689.16;;;12.12;53.96
10093;BME280;5085;48.092;11.484;2022-11-20T11:01:50;94691.72;;;11.84;54.78
10093;BME280;5085;48.092;11.484;2022-11-20T11:06:48;94685.59;;;11.22;58.13
10093;BME280;5085;48.092;11.484;2022-11-20T11:09:20;94682.56;;;10.81;60.20
10093;BME280;5085;48.092;11.484;2022-11-20T11:11:47;94684.66;;;10.36;62.15
10093;BME280;5085;48.092;11.484;2022-11-20T11:14:15;94680.66;;;9.99;66.90
10093;BME280;5085;48.092;11.484;2022-11-20T11:16:55;94681.09;;;9.77;68.91
10093;BME280;5085;48.092;11.484;2022-11-20T11:19:22;94677.13;;;9.69;71.57
10093;BME280;5085;48.092;11.484;2022-11-20T11:21:51;94665.31;;;9.65;70.07
10093;BME280;5085;48.092;11.484;2022-11-20T11:27:01;94651.72;;;9.46;72.28
10093;BME280;5085;48.092;11.484;2022-11-20T11:29:30;94671.16;;;9.33;71.94
10093;BME280;5085;48.092;11.484;2022-11-20T11:32:08;94664.53;;;9.20;73.42
10093;BME280;5085;48.092;11.484;2022-11-20T11:34:34;94664.56;;;9.15;74.75
10093;BME280;5085;48.092;11.484;2022-11-20T11:37:01;94652.03;;;9.79;72.13
10093;BME280;5085;48.092;11.484;2022-11-20T11:39:30;94647.19;;;10.87;64.96
10093;BME280;5085;48.092;11.484;2022-11-20T11:42:00;94651.41;;;11.36;60.92
10093;BME280;5085;48.092;11.484;2022-11-20T11:44:35;94647.56;;;11.61;58.88
10093;BME280;5085;48.092;11.484;2022-11-20T11:47:36;94649.81;;;11.54;58.40
10093;BME280;5085;48.092;11.484;2022-11-20T11:50:15;94650.31;;;11.37;58.51
10093;BME280;5085;48.092;11.484;2022-11-20T11:58:30;94644.19;;;11.13;59.97
10093;BME280;5085;48.092;11.484;2022-11-20T12:01:26;94654.09;;;11.55;60.15
10093;BME280;5085;48.092;11.484;2022-11-20T12:06:26;94647.53;;;13.14;54.57
10093;BME280;5085;48.092;11.484;2022-11-20T12:09:08;94658.03;;;12.61;55.69
10093;BME280;5085;48.092;11.484;2022-11-20T12:11:55;94653.69;;;11.86;58.16
10093;BME280;5085;48.092;11.484;2022-11-20T12:14:31;94655.97;;;10.98;64.57
10093;BME280;5085;48.092;11.484;2022-11-20T12:17:00;94662.97;;;10.22;75.84
10093;BME280;5085;48.092;11.484;2022-11-20T12:19:31;94661.25;;;9.68;82.66
10093;BME280;5085;48.092;11.484;2022-11-20T12:22:04;94662.38;;;9.22;86.98
10093;BME280;5085;48.092;11.484;2022-11-20T12:29:57;94649.00;;;8.47;100.00
10093;BME280;5085;48.092;11.484;2022-11-20T12:32:44;94657.03;;;8.32;100.00
10093;BME280;5085;48.092;11.484;2022-11-20T12:35:44;94649.88;;;8.07;100.00
10093;BME280;5085;48.092;11.484;2022-11-20T12:38:39;94647.75;;;7.79;100.00
10093;BME280;5085;48.092;11.484;2022-11-20T12:45:07;94644.81;;;7.39;100.00
10093;BME280;5085;48.092;11.484;2022-11-20T12:48:32;94644.78;;;7.29;100.00
10093;BME280;5085;48.092;11.484;2022-11-20T12:51:20;94648.25;;;7.24;100.00
10093;BME280;5085;48.092;11.484;2022-11-20T12:54:14;94649.03;;;7.25;100.00
10093;BME280;5085;48.092;11.484;2022-11-20T13:00:08;94643.16;;;7.28;100.00
10093;BME280;5085;48.092;11.484;2022-11-20T13:08:01;94647.69;;;7.07;100.00
10093;BME280;5085;48.092;11.484;2022-11-20T13:10:36;94644.72;;;6.98;100.00
10093;BME280;5085;48.092;11.484;2022-11-20T13:13:15;94653.25;;;6.85;100.00
10093;BME280;5085;48.092;11.484;2022-11-20T13:15:59;94649.47;;;6.76;100.00
10093;BME280;5085;48.092;11.484;2022-11-20T13:18:26;94630.69;;;6.61;100.00
10093;BME280;5085;48.092;11.484;2022-11-20T13:20:52;94628.22;;;6.49;100.00
10093;BME280;5085;48.092;11.484;2022-11-20T13:23:28;94623.63;;;6.39;100.00
10093;BME280;5085;48.092;11.484;2022-11-20T13:26:16;94621.47;;;6.36;100.00
10093;BME280;5085;48.092;11.484;2022-11-20T13:28:43;94616.94;;;6.37;100.00
10093;BME280;5085;48.092;11.484;2022-11-20T13:31:30;94619.66;;;6.42;100.00
10093;BME280;5085;48.092;11.484;2022-11-20T13:33:57;94611.88;;;6.40;100.00
10093;BME280;5085;48.092;11.484;2022-11-20T13:36:26;94615.63;;;6.39;100.00
10093;BME280;5085;48.092;11.484;2022-11-20T13:38:55;94612.66;;;6.36;100.00
10093;BME280;5085;48.092;11.484;2022-11-20T13:41:32;94605.44;;;6.36;100.00
10093;BME280;5085;48.092;11.484;2022-11-20T13:46:43;94605.44;;;6.41;100.00
10093;BME280;5085;48.092;11.484;2022-11-20T13:49:17;94604.41;;;6.42;100.00
10093;BME280;5085;48.092;11.484;2022-11-20T13:51:46;94598.50;;;6.45;100.00
10093;BME280;5085;48.092;11.484;2022-11-20T14:00:21;94602.28;;;6.49;100.00
10093;BME280;5085;48.092;11.484;2022-11-20T14:05:34;94593.22;;;6.56;100.00
10093;BME280;5085;48.092;11.484;2022-11-20T14:08:03;94593.53;;;6.69;100.00
10093;BME280;5085;48.092;11.484;2022-11-20T14:10:29;94593.81;;;6.83;100.00
10093;BME280;5085;48.092;11.484;2022-11-20T14:12:56;94597.59;;;6.97;100.00
10093;BME280;5085;48.092;11.484;2022-11-20T14:17:51;94604.59;;;7.14;100.00
10093;BME280;5085;48.092;11.484;2022-11-20T14:20:17;94604.84;;;7.17;100.00
10093;BME280;5085;48.092;11.484;2022-11-20T14:22:49;94596.56;;;7.19;100.00
10093;BME280;5085;48.092;11.484;2022-11-20T14:27:51;94599.78;;;7.11;100.00
10093;BME280;5085;48.092;11.484;2022-11-20T14:30:23;94607.25;;;7.09;100.00
10093;BME280;5085;48.092;11.484;2022-11-20T14:32:50;94603.50;;;7.05;100.00